createdAt,value
2019-02-19T00:04:32.154Z,98.70
2019-02-19T00:09:28.285Z,98.80
2019-02-19T00:14:26.754Z,98.90
2019-02-19T00:19:22.763Z,98.50
2019-02-19T00:24:18.835Z,98.50
2019-02-19T00:29:14.991Z,98.50
2019-02-19T00:34:11.031Z,98.70
2019-02-19T00:39:07.264Z,99.00
2019-02-19T00:44:03.262Z,98.80
2019-02-19T00:48:59.583Z,98.80
2019-02-19T00:53:55.901Z,99.20
2019-02-19T00:58:52.553Z,99.20
2019-02-19T01:03:48.599Z,99.50
2019-02-19T01:08:47.579Z,99.60
2019-02-19T01:13:52.763Z,99.90
2019-02-19T01:18:49.001Z,99.90
2019-02-19T01:23:44.890Z,99.40
2019-02-19T01:28:41.174Z,99.50
2019-02-19T01:33:37.221Z,99.80
2019-02-19T01:38:33.856Z,99.90
2019-02-19T01:43:30.281Z,99.90
2019-02-19T01:48:26.427Z,99.90
2019-02-19T01:53:22.382Z,99.90
2019-02-19T01:58:18.275Z,99.90
2019-02-19T02:03:15.658Z,99.90
2019-02-19T02:08:11.805Z,99.90
2019-02-19T02:13:08.193Z,99.90
2019-02-19T02:18:04.473Z,99.90
2019-02-19T02:23:00.265Z,99.90
2019-02-19T02:27:56.411Z,99.90
2019-02-19T02:32:52.486Z,99.90
2019-02-19T02:37:48.663Z,99.90
2019-02-19T02:42:44.659Z,99.90
2019-02-19T02:47:40.901Z,99.90
2019-02-19T02:52:37.117Z,99.90
2019-02-19T02:57:33.068Z,99.90
2019-02-19T03:02:29.494Z,99.90
2019-02-19T03:07:33.413Z,99.90
2019-02-19T03:12:32.763Z,99.90
2019-02-19T03:17:28.501Z,99.90
2019-02-19T03:22:24.348Z,99.90
2019-02-19T03:27:20.208Z,99.90
2019-02-19T03:32:15.956Z,99.90
2019-02-19T03:37:11.729Z,99.90
2019-02-19T03:42:07.487Z,99.90
2019-02-19T03:47:03.384Z,99.90
2019-02-19T03:51:59.201Z,99.90
2019-02-19T03:56:54.958Z,99.90
2019-02-19T04:01:50.941Z,99.90
2019-02-19T04:06:46.694Z,99.90
2019-02-19T04:11:42.415Z,99.90
2019-02-19T04:16:38.483Z,99.90
2019-02-19T04:21:35.244Z,99.90
2019-02-19T04:26:31.434Z,99.90
2019-02-19T04:31:27.107Z,99.90
2019-02-19T04:36:22.843Z,99.90
2019-02-19T04:41:18.583Z,99.90
2019-02-19T04:46:14.635Z,99.90
2019-02-19T04:51:11.393Z,99.90
2019-02-19T04:56:07.140Z,99.90
2019-02-19T05:01:02.962Z,99.90
2019-02-19T05:05:58.718Z,99.90
2019-02-19T05:10:54.796Z,99.90
2019-02-19T05:15:53.950Z,99.90
2019-02-19T05:20:49.743Z,99.90
2019-02-19T05:25:47.004Z,99.90
2019-02-19T05:30:46.252Z,99.90
2019-02-19T05:35:42.048Z,99.90
2019-02-19T05:40:37.834Z,99.90
2019-02-19T05:45:33.591Z,99.90
2019-02-19T05:50:29.313Z,99.90
2019-02-19T05:55:28.055Z,99.90
2019-02-19T06:00:23.747Z,99.90
2019-02-19T06:05:19.486Z,99.90
2019-02-19T06:10:15.206Z,99.90
2019-02-19T06:15:12.675Z,99.90
2019-02-19T06:20:09.122Z,99.90
2019-02-19T06:25:05.174Z,99.90
2019-02-19T06:30:01.150Z,99.90
2019-02-19T06:34:56.925Z,99.90
2019-02-19T06:40:11.626Z,99.90
2019-02-19T06:45:09.596Z,99.90
2019-02-19T06:50:15.096Z,99.90
2019-02-19T06:55:28.831Z,99.90
2019-02-19T07:00:25.805Z,99.90
2019-02-19T07:05:35.554Z,99.90
2019-02-19T07:10:33.596Z,99.90
2019-02-19T07:15:29.371Z,99.90
2019-02-19T07:20:25.204Z,99.90
2019-02-19T07:25:21.256Z,99.90
2019-02-19T07:30:17.015Z,99.90
2019-02-19T07:35:12.922Z,99.90
2019-02-19T07:40:08.958Z,99.90
2019-02-19T07:45:04.905Z,99.90
2019-02-19T07:50:00.833Z,99.90
2019-02-19T07:54:57.562Z,99.90
2019-02-19T07:59:56.937Z,99.90
2019-02-19T08:04:55.922Z,99.90
2019-02-19T08:09:51.761Z,99.90
2019-02-19T08:14:47.499Z,99.90
2019-02-19T08:19:43.360Z,99.90
2019-02-19T08:24:39.134Z,99.90
2019-02-19T08:29:35.129Z,99.90
2019-02-19T08:34:30.881Z,99.90
2019-02-19T08:39:26.599Z,99.90
2019-02-19T08:44:22.354Z,99.90
2019-02-19T08:49:18.415Z,99.50
2019-02-19T08:54:14.199Z,98.60
2019-02-19T08:59:10.051Z,98.40
2019-02-19T09:04:08.488Z,97.60
2019-02-19T09:09:05.876Z,96.60
2019-02-19T09:14:01.588Z,95.10
2019-02-19T09:18:57.408Z,93.90
2019-02-19T09:23:53.180Z,92.90
2019-02-19T09:28:50.027Z,92.20
2019-02-19T09:33:45.835Z,90.90
2019-02-19T09:38:41.795Z,89.80
2019-02-19T09:43:37.689Z,88.30
2019-02-19T09:48:33.495Z,84.80
2019-02-19T09:53:29.291Z,81.40
2019-02-19T09:58:25.177Z,80.20
2019-02-19T10:03:21.285Z,76.20
2019-02-19T10:08:18.140Z,66.10
2019-02-19T10:13:13.965Z,64.60
2019-02-19T10:18:10.556Z,59.80
2019-02-19T10:23:09.222Z,58.30
2019-02-19T10:28:05.308Z,55.10
2019-02-19T10:33:01.138Z,53.00
2019-02-19T10:37:57.040Z,51.20
2019-02-19T10:42:52.918Z,50.30
2019-02-19T10:47:48.824Z,47.60
2019-02-19T10:52:45.979Z,44.30
2019-02-19T10:57:42.420Z,42.10
2019-02-19T11:02:38.212Z,40.80
2019-02-19T11:07:35.551Z,39.50
2019-02-19T11:12:31.334Z,38.70
2019-02-19T11:17:27.075Z,36.90
2019-02-19T11:22:22.970Z,34.80
2019-02-19T11:27:18.850Z,34.20
2019-02-19T11:32:14.680Z,33.70
2019-02-19T11:37:10.555Z,33.20
2019-02-19T11:42:06.293Z,32.60
2019-02-19T11:47:02.075Z,33.80
2019-02-19T11:52:00.518Z,33.30
2019-02-19T11:56:56.313Z,34.90
2019-02-19T12:01:52.416Z,34.00
2019-02-19T12:06:51.291Z,33.70
2019-02-19T12:11:47.100Z,33.90
2019-02-19T12:16:42.853Z,33.40
2019-02-19T12:21:39.717Z,30.90
2019-02-19T12:26:36.016Z,32.30
2019-02-19T12:31:31.874Z,31.80
2019-02-19T12:36:27.832Z,30.10
2019-02-19T12:41:23.552Z,30.00
2019-02-19T12:46:26.139Z,29.60
2019-02-19T12:51:26.422Z,29.80
2019-02-19T12:56:20.256Z,29.00
2019-02-19T13:01:16.142Z,28.10
2019-02-19T13:06:11.990Z,27.90
2019-02-19T13:11:07.768Z,27.10
2019-02-19T13:16:03.647Z,27.00
2019-02-19T13:20:59.463Z,26.00
2019-02-19T13:25:55.390Z,25.80
2019-02-19T13:30:51.151Z,26.10
2019-02-19T13:35:46.896Z,26.00
2019-02-19T13:40:42.621Z,24.80
2019-02-19T13:45:38.549Z,24.20
2019-02-19T13:50:34.494Z,22.30
2019-02-19T13:55:33.597Z,23.30
2019-02-19T14:00:31.021Z,23.20
2019-02-19T14:05:26.816Z,22.20
2019-02-19T14:10:22.539Z,22.00
2019-02-19T14:15:46.198Z,23.20
2019-02-19T14:21:09.662Z,22.30
2019-02-19T14:26:23.891Z,21.80
2019-02-19T14:31:50.671Z,21.40
2019-02-19T14:37:14.250Z,21.90
2019-02-19T14:42:28.974Z,21.50
2019-02-19T14:47:43.071Z,21.30
2019-02-19T14:52:54.478Z,21.20
2019-02-19T14:58:18.414Z,21.20
2019-02-19T15:03:42.638Z,20.80
2019-02-19T15:08:57.468Z,20.90
2019-02-19T15:14:17.880Z,21.30
2019-02-19T15:19:41.867Z,22.30
2019-02-19T15:25:05.861Z,24.40
2019-02-19T15:30:26.297Z,26.90
2019-02-19T15:35:34.421Z,28.30
2019-02-19T15:40:52.093Z,29.30
2019-02-19T15:46:24.153Z,30.10
2019-02-19T15:51:29.370Z,30.90
2019-02-19T15:56:33.292Z,31.30
2019-02-19T16:01:42.797Z,32.40
2019-02-19T16:07:00.221Z,33.50
2019-02-19T16:12:14.984Z,35.00
2019-02-19T16:17:25.299Z,36.90
2019-02-19T16:22:42.720Z,38.00
2019-02-19T16:27:57.967Z,38.50
2019-02-19T16:33:07.357Z,39.00
2019-02-19T16:38:16.176Z,40.00
2019-02-19T16:43:26.690Z,41.70
2019-02-19T16:48:41.454Z,42.80
2019-02-19T16:54:08.437Z,43.80
2019-02-19T16:59:19.708Z,45.10
2019-02-19T17:04:24.749Z,45.90
2019-02-19T17:09:31.455Z,46.70
2019-02-19T17:15:04.270Z,47.90
2019-02-19T17:20:28.802Z,48.90
2019-02-19T17:25:46.299Z,50.70
2019-02-19T17:31:10.822Z,51.50
2019-02-19T17:36:13.899Z,52.50
2019-02-19T17:41:36.319Z,54.20
2019-02-19T17:46:43.353Z,56.30
2019-02-19T17:51:57.065Z,58.30
2019-02-19T17:57:24.331Z,59.80
2019-02-19T18:02:44.390Z,61.50
2019-02-19T18:07:59.427Z,64.10
2019-02-19T18:13:32.971Z,66.80
2019-02-19T18:18:47.531Z,68.00
2019-02-19T18:23:44.965Z,70.70
2019-02-19T18:28:42.257Z,72.70
2019-02-19T18:33:39.246Z,73.60
2019-02-19T18:38:36.914Z,73.80
2019-02-19T18:43:36.547Z,74.30
2019-02-19T18:48:33.530Z,74.60
2019-02-19T18:53:30.990Z,76.10
2019-02-19T18:58:26.957Z,78.20
2019-02-19T19:03:22.962Z,79.30
2019-02-19T19:08:22.956Z,79.90
2019-02-19T19:13:18.821Z,81.40
2019-02-19T19:18:14.713Z,81.30
2019-02-19T19:23:10.588Z,81.80
2019-02-19T19:28:07.503Z,82.20
2019-02-19T19:33:03.336Z,83.90
2019-02-19T19:37:59.115Z,85.90
2019-02-19T19:42:54.904Z,88.00
2019-02-19T19:47:50.654Z,88.50
2019-02-19T19:52:47.188Z,88.60
2019-02-19T19:57:43.142Z,88.60
2019-02-19T20:02:41.922Z,89.70
2019-02-19T20:07:38.866Z,89.60
2019-02-19T20:12:36.030Z,90.10
2019-02-19T20:17:31.987Z,90.30
2019-02-19T20:22:27.917Z,90.30
2019-02-19T20:27:24.289Z,91.10
2019-02-19T20:32:20.260Z,91.20
2019-02-19T20:37:17.136Z,91.40
2019-02-19T20:42:15.201Z,91.30
2019-02-19T20:47:12.484Z,91.40
2019-02-19T20:52:08.530Z,92.20
2019-02-19T20:57:04.709Z,93.00
2019-02-19T21:02:01.579Z,93.30
2019-02-19T21:06:58.543Z,93.40
2019-02-19T21:12:01.060Z,93.50
2019-02-19T21:17:00.142Z,93.80
2019-02-19T21:21:56.348Z,94.40
2019-02-19T21:26:52.350Z,94.50
2019-02-19T21:31:48.735Z,94.50
2019-02-19T21:36:44.736Z,94.40
2019-02-19T21:41:42.794Z,94.60
2019-02-19T21:46:41.395Z,95.00
2019-02-19T21:51:37.849Z,95.00
2019-02-19T21:56:34.842Z,95.40
2019-02-19T22:01:30.686Z,95.70
2019-02-19T22:06:29.747Z,95.70
2019-02-19T22:11:25.461Z,95.90
2019-02-19T22:16:21.244Z,96.30
2019-02-19T22:21:38.924Z,97.00
2019-02-19T22:26:34.575Z,97.30
2019-02-19T22:31:31.412Z,97.30
2019-02-19T22:36:27.235Z,97.30
2019-02-19T22:41:25.416Z,97.10
2019-02-19T22:46:21.214Z,97.00
2019-02-19T22:51:17.080Z,96.90
2019-02-19T22:56:17.760Z,96.80
2019-02-19T23:01:23.332Z,96.80
2019-02-19T23:06:20.312Z,97.50
2019-02-19T23:11:16.271Z,98.00
2019-02-19T23:16:12.037Z,98.10
2019-02-19T23:21:07.785Z,98.40
2019-02-19T23:26:07.563Z,98.40
2019-02-19T23:31:03.487Z,98.40
2019-02-19T23:36:04.327Z,98.40
2019-02-19T23:41:00.561Z,98.70
2019-02-19T23:45:58.499Z,98.90
2019-02-19T23:50:54.319Z,99.00
2019-02-19T23:55:50.027Z,98.80
